sensor_id;sensor_type;location;lat;lon;timestamp;pressure;altitude;pressure_sealevel;temperature;humidity
78986;BME280;68384;55.750;48.746;2024-01-16T00:00:03;98387.28;;;-8.59;81.40
78986;BME280;68384;55.750;48.746;2024-01-16T00:01:06;98387.25;;;-8.57;80.65
78986;BME280;68384;55.750;48.746;2024-01-16T00:02:08;98383.81;;;-8.53;81.43
78986;BME280;68384;55.750;48.746;2024-01-16T00:03:11;98381.25;;;-8.55;81.76
78986;BME280;68384;55.750;48.746;2024-01-16T00:04:13;98377.84;;;-8.55;81.47
78986;BME280;68384;55.750;48.746;2024-01-16T00:05:16;98382.13;;;-8.57;82.02
78986;BME280;68384;55.750;48.746;2024-01-16T00:06:18;98381.25;;;-8.55;81.96
78986;BME280;68384;55.750;48.746;2024-01-16T00:07:20;98376.09;;;-8.52;81.90
78986;BME280;68384;55.750;48.746;2024-01-16T00:08:23;98376.94;;;-8.51;81.51
78986;BME280;68384;55.750;48.746;2024-01-16T00:09:25;98373.50;;;-8.49;81.93
78986;BME280;68384;55.750;48.746;2024-01-16T00:10:27;98377.78;;;-8.48;81.42
78986;BME280;68384;55.750;48.746;2024-01-16T00:11:30;98374.31;;;-8.44;81.41
78986;BME280;68384;55.750;48.746;2024-01-16T00:12:32;98376.03;;;-8.44;80.64
78986;BME280;68384;55.750;48.746;2024-01-16T00:13:34;98377.72;;;-8.43;81.20
78986;BME280;68384;55.750;48.746;2024-01-16T00:14:36;98374.25;;;-8.41;81.60
78986;BME280;68384;55.750;48.746;2024-01-16T00:15:39;98379.38;;;-8.38;80.93
78986;BME280;68384;55.750;48.746;2024-01-16T00:16:44;98374.22;;;-8.38;81.25
78986;BME280;68384;55.750;48.746;2024-01-16T00:17:47;98374.22;;;-8.36;81.29
78986;BME280;68384;55.750;48.746;2024-01-16T00:18:49;98370.78;;;-8.35;81.67
78986;BME280;68384;55.750;48.746;2024-01-16T00:19:52;98382.75;;;-8.32;81.66
78986;BME280;68384;55.750;48.746;2024-01-16T00:20:54;98387.88;;;-8.32;81.07
78986;BME280;68384;55.750;48.746;2024-01-16T00:21:57;98375.88;;;-8.30;81.27
78986;BME280;68384;55.750;48.746;2024-01-16T00:22:59;98368.19;;;-8.30;81.48
78986;BME280;68384;55.750;48.746;2024-01-16T00:24:02;98371.59;;;-8.30;81.96
78986;BME280;68384;55.750;48.746;2024-01-16T00:25:04;98375.94;;;-8.37;82.74
78986;BME280;68384;55.750;48.746;2024-01-16T00:26:06;98366.50;;;-8.35;82.86
78986;BME280;68384;55.750;48.746;2024-01-16T00:27:08;98369.06;;;-8.35;82.82
78986;BME280;68384;55.750;48.746;2024-01-16T00:28:11;98374.19;;;-8.31;83.43
78986;BME280;68384;55.750;48.746;2024-01-16T00:29:13;98369.03;;;-8.30;82.76
78986;BME280;68384;55.750;48.746;2024-01-16T00:30:16;98372.47;;;-8.32;82.93
78986;BME280;68384;55.750;48.746;2024-01-16T00:31:19;98367.31;;;-8.29;83.27
78986;BME280;68384;55.750;48.746;2024-01-16T00:32:21;98364.72;;;-8.28;82.33
78986;BME280;68384;55.750;48.746;2024-01-16T00:33:24;98364.72;;;-8.28;82.02
78986;BME280;68384;55.750;48.746;2024-01-16T00:34:26;98372.34;;;-8.23;82.72
78986;BME280;68384;55.750;48.746;2024-01-16T00:35:28;98364.66;;;-8.23;82.58
78986;BME280;68384;55.750;48.746;2024-01-16T00:36:31;98372.34;;;-8.23;82.54
78986;BME280;68384;55.750;48.746;2024-01-16T00:37:33;98364.63;;;-8.20;82.36
78986;BME280;68384;55.750;48.746;2024-01-16T00:38:35;98362.06;;;-8.20;81.47
78986;BME280;68384;55.750;48.746;2024-01-16T00:39:37;98369.72;;;-8.17;82.55
78986;BME280;68384;55.750;48.746;2024-01-16T00:40:39;98357.78;;;-8.20;82.15
78986;BME280;68384;55.750;48.746;2024-01-16T00:41:41;98365.47;;;-8.20;81.80
78986;BME280;68384;55.750;48.746;2024-01-16T00:42:44;98356.91;;;-8.20;82.15
78986;BME280;68384;55.750;48.746;2024-01-16T00:43:46;98350.06;;;-8.18;81.42
78986;BME280;68384;55.750;48.746;2024-01-16T00:44:48;98362.03;;;-8.17;81.81
78986;BME280;68384;55.750;48.746;2024-01-16T00:45:50;98360.31;;;-8.18;81.59
78986;BME280;68384;55.750;48.746;2024-01-16T00:46:52;98364.59;;;-8.17;81.48
78986;BME280;68384;55.750;48.746;2024-01-16T00:47:54;98360.28;;;-8.15;81.24
78986;BME280;68384;55.750;48.746;2024-01-16T00:48:57;98368.00;;;-8.17;81.76
78986;BME280;68384;55.750;48.746;2024-01-16T00:49:59;98366.28;;;-8.16;81.88
78986;BME280;68384;55.750;48.746;2024-01-16T00:51:05;98362.88;;;-8.15;81.77
78986;BME280;68384;55.750;48.746;2024-01-16T00:52:07;98368.84;;;-8.15;82.10
78986;BME280;68384;55.750;48.746;2024-01-16T00:53:09;98361.97;;;-8.13;81.53
78986;BME280;68384;55.750;48.746;2024-01-16T00:54:11;98360.25;;;-8.12;81.69
78986;BME280;68384;55.750;48.746;2024-01-16T00:55:13;98356.84;;;-8.11;81.62
78986;BME280;68384;55.750;48.746;2024-01-16T00:56:15;98356.88;;;-8.14;81.11
78986;BME280;68384;55.750;48.746;2024-01-16T00:57:18;98358.56;;;-8.13;81.26
78986;BME280;68384;55.750;48.746;2024-01-16T00:58:22;98350.84;;;-8.12;81.53
78986;BME280;68384;55.750;48.746;2024-01-16T00:59:24;98343.16;;;-8.13;81.08
78986;BME280;68384;55.750;48.746;2024-01-16T01:00:26;98350.00;;;-8.12;81.36
78986;BME280;68384;55.750;48.746;2024-01-16T01:01:29;98350.00;;;-8.12;81.43
78986;BME280;68384;55.750;48.746;2024-01-16T01:02:31;98351.69;;;-8.11;81.27
78986;BME280;68384;55.750;48.746;2024-01-16T01:03:33;98354.22;;;-8.08;82.01
78986;BME280;68384;55.750;48.746;2024-01-16T01:04:35;98344.00;;;-8.11;81.38
78986;BME280;68384;55.750;48.746;2024-01-16T01:05:37;98349.13;;;-8.11;82.10
78986;BME280;68384;55.750;48.746;2024-01-16T01:06:40;98356.81;;;-8.08;82.21
78986;BME280;68384;55.750;48.746;2024-01-16T01:07:43;98352.53;;;-8.11;82.30
78986;BME280;68384;55.750;48.746;2024-01-16T01:08:45;98356.84;;;-8.11;81.67
78986;BME280;68384;55.750;48.746;2024-01-16T01:09:47;98357.66;;;-8.09;82.38
78986;BME280;68384;55.750;48.746;2024-01-16T01:10:49;98346.50;;;-8.07;82.60
78986;BME280;68384;55.750;48.746;2024-01-16T01:11:51;98345.59;;;-8.04;82.06
78986;BME280;68384;55.750;48.746;2024-01-16T01:12:53;98349.88;;;-8.03;82.10
78986;BME280;68384;55.750;48.746;2024-01-16T01:13:56;98346.44;;;-8.04;81.99
78986;BME280;68384;55.750;48.746;2024-01-16T01:14:58;98343.84;;;-7.99;81.74
78986;BME280;68384;55.750;48.746;2024-01-16T01:16:01;98353.25;;;-7.98;81.76
78986;BME280;68384;55.750;48.746;2024-01-16T01:17:03;98341.25;;;-7.99;81.22
78986;BME280;68384;55.750;48.746;2024-01-16T01:18:05;98346.38;;;-7.96;81.56
78986;BME280;68384;55.750;48.746;2024-01-16T01:19:09;98339.50;;;-7.95;81.64
78986;BME280;68384;55.750;48.746;2024-01-16T01:20:11;98347.22;;;-7.95;80.99
78986;BME280;68384;55.750;48.746;2024-01-16T01:21:14;98347.19;;;-7.94;80.93
78986;BME280;68384;55.750;48.746;2024-01-16T01:22:16;98350.63;;;-7.93;82.15
78986;BME280;68384;55.750;48.746;2024-01-16T01:23:18;98338.63;;;-7.93;81.42
78986;BME280;68384;55.750;48.746;2024-01-16T01:24:21;98336.88;;;-7.89;81.38
78986;BME280;68384;55.750;48.746;2024-01-16T01:25:23;98335.13;;;-7.87;81.04
78986;BME280;68384;55.750;48.746;2024-01-16T01:26:28;98334.28;;;-7.88;80.80
78986;BME280;68384;55.750;48.746;2024-01-16T01:27:30;98329.09;;;-7.85;81.24
78986;BME280;68384;55.750;48.746;2024-01-16T01:28:32;98332.47;;;-7.83;81.01
78986;BME280;68384;55.750;48.746;2024-01-16T01:29:34;98327.34;;;-7.83;81.14
78986;BME280;68384;55.750;48.746;2024-01-16T01:30:37;98329.06;;;-7.82;81.03
78986;BME280;68384;55.750;48.746;2024-01-16T01:31:39;98323.91;;;-7.80;82.08
78986;BME280;68384;55.750;48.746;2024-01-16T01:32:41;98330.72;;;-7.78;80.93
78986;BME280;68384;55.750;48.746;2024-01-16T01:33:43;98329.88;;;-7.78;81.61
78986;BME280;68384;55.750;48.746;2024-01-16T01:34:46;98332.41;;;-7.77;80.99
78986;BME280;68384;55.750;48.746;2024-01-16T01:35:49;98319.56;;;-7.75;81.74
78986;BME280;68384;55.750;48.746;2024-01-16T01:36:51;98327.31;;;-7.80;81.65
78986;BME280;68384;55.750;48.746;2024-01-16T01:37:53;98331.56;;;-7.77;81.80
78986;BME280;68384;55.750;48.746;2024-01-16T01:38:55;98327.28;;;-7.77;81.71
78986;BME280;68384;55.750;48.746;2024-01-16T01:39:57;98331.53;;;-7.74;80.79
78986;BME280;68384;55.750;48.746;2024-01-16T01:40:59;98335.81;;;-7.75;81.17
78986;BME280;68384;55.750;48.746;2024-01-16T01:42:02;98320.38;;;-7.73;81.77
78986;BME280;68384;55.750;48.746;2024-01-16T01:43:23;98334.94;;;-7.72;81.41
78986;BME280;68384;55.750;48.746;2024-01-16T01:44:26;98331.53;;;-7.74;81.55
78986;BME280;68384;55.750;48.746;2024-01-16T01:45:28;98329.78;;;-7.71;81.37
78986;BME280;68384;55.750;48.746;2024-01-16T01:46:32;98318.66;;;-7.73;81.28
78986;BME280;68384;55.750;48.746;2024-01-16T01:47:42;98331.50;;;-7.73;81.47
78986;BME280;68384;55.750;48.746;2024-01-16T01:48:47;98325.47;;;-7.70;81.21
78986;BME280;68384;55.750;48.746;2024-01-16T01:49:51;98338.31;;;-7.69;81.62
78986;BME280;68384;55.750;48.746;2024-01-16T01:50:53;98337.47;;;-7.69;81.57
78986;BME280;68384;55.750;48.746;2024-01-16T01:51:56;98340.91;;;-7.70;81.43
78986;BME280;68384;55.750;48.746;2024-01-16T01:52:58;98316.06;;;-7.71;81.31
78986;BME280;68384;55.750;48.746;2024-01-16T01:54:01;98327.97;;;-7.67;81.82
78986;BME280;68384;55.750;48.746;2024-01-16T01:55:04;98334.91;;;-7.69;80.49
78986;BME280;68384;55.750;48.746;2024-01-16T01:56:10;98318.66;;;-7.71;81.44
78986;BME280;68384;55.750;48.746;2024-01-16T01:57:16;98328.88;;;-7.68;81.22
78986;BME280;68384;55.750;48.746;2024-01-16T01:58:19;98330.59;;;-7.69;80.57
78986;BME280;68384;55.750;48.746;2024-01-16T01:59:23;98338.31;;;-7.69;80.87
78986;BME280;68384;55.750;48.746;2024-01-16T02:00:25;98323.75;;;-7.70;80.62
78986;BME280;68384;55.750;48.746;2024-01-16T02:01:29;98313.47;;;-7.70;80.90
78986;BME280;68384;55.750;48.746;2024-01-16T02:02:34;98327.19;;;-7.71;81.50
78986;BME280;68384;55.750;48.746;2024-01-16T02:03:41;98322.00;;;-7.68;81.61
78986;BME280;68384;55.750;48.746;2024-01-16T02:04:44;98319.41;;;-7.66;81.24
78986;BME280;68384;55.750;48.746;2024-01-16T02:05:49;98318.53;;;-7.65;80.98
78986;BME280;68384;55.750;48.746;2024-01-16T02:06:52;98320.25;;;-7.64;80.38
78986;BME280;68384;55.750;48.746;2024-01-16T02:07:54;98320.25;;;-7.66;81.17
78986;BME280;68384;55.750;48.746;2024-01-16T02:08:56;98331.41;;;-7.67;80.93
78986;BME280;68384;55.750;48.746;2024-01-16T02:09:59;98322.81;;;-7.66;81.19
78986;BME280;68384;55.750;48.746;2024-01-16T02:11:05;98317.66;;;-7.64;81.38
78986;BME280;68384;55.750;48.746;2024-01-16T02:12:08;98327.09;;;-7.65;81.57
78986;BME280;68384;55.750;48.746;2024-01-16T02:13:10;98333.97;;;-7.65;80.94
78986;BME280;68384;55.750;48.746;2024-01-16T02:14:12;98327.06;;;-7.61;81.79
78986;BME280;68384;55.750;48.746;2024-01-16T02:15:14;98325.34;;;-7.61;81.68
78986;BME280;68384;55.750;48.746;2024-01-16T02:16:20;98323.59;;;-7.59;82.04
78986;BME280;68384;55.750;48.746;2024-01-16T02:17:24;98329.56;;;-7.55;81.47
78986;BME280;68384;55.750;48.746;2024-01-16T02:18:26;98325.25;;;-7.53;81.42
78986;BME280;68384;55.750;48.746;2024-01-16T02:19:28;98325.25;;;-7.53;81.94
78986;BME280;68384;55.750;48.746;2024-01-16T02:20:31;98326.09;;;-7.53;82.14
78986;BME280;68384;55.750;48.746;2024-01-16T02:21:39;98321.78;;;-7.51;81.94
78986;BME280;68384;55.750;48.746;2024-01-16T02:22:45;98321.78;;;-7.51;82.18
78986;BME280;68384;55.750;48.746;2024-01-16T02:23:50;98328.66;;;-7.51;82.54
78986;BME280;68384;55.750;48.746;2024-01-16T02:24:52;98331.22;;;-7.51;82.31
78986;BME280;68384;55.750;48.746;2024-01-16T02:25:54;98330.38;;;-7.52;82.17
78986;BME280;68384;55.750;48.746;2024-01-16T02:26:57;98326.94;;;-7.52;82.29
78986;BME280;68384;55.750;48.746;2024-01-16T02:28:00;98326.06;;;-7.51;82.49
78986;BME280;68384;55.750;48.746;2024-01-16T02:29:02;98331.22;;;-7.51;82.30
78986;BME280;68384;55.750;48.746;2024-01-16T02:30:07;98326.06;;;-7.51;82.89
78986;BME280;68384;55.750;48.746;2024-01-16T02:31:09;98328.66;;;-7.51;82.68
78986;BME280;68384;55.750;48.746;2024-01-16T02:32:12;98337.22;;;-7.51;82.16
78986;BME280;68384;55.750;48.746;2024-01-16T02:33:15;98325.25;;;-7.53;82.97
78986;BME280;68384;55.750;48.746;2024-01-16T02:34:17;98323.53;;;-7.53;83.02
78986;BME280;68384;55.750;48.746;2024-01-16T02:35:20;98326.94;;;-7.52;82.55
78986;BME280;68384;55.750;48.746;2024-01-16T02:36:22;98334.66;;;-7.52;82.95
78986;BME280;68384;55.750;48.746;2024-01-16T02:37:24;98333.78;;;-7.51;82.35
78986;BME280;68384;55.750;48.746;2024-01-16T02:38:27;98334.63;;;-7.49;83.14
78986;BME280;68384;55.750;48.746;2024-01-16T02:39:29;98328.56;;;-7.48;82.91
78986;BME280;68384;55.750;48.746;2024-01-16T02:40:32;98336.25;;;-7.47;82.96
78986;BME280;68384;55.750;48.746;2024-01-16T02:41:34;98331.97;;;-7.46;83.10
78986;BME280;68384;55.750;48.746;2024-01-16T02:42:37;98328.56;;;-7.47;82.78
78986;BME280;68384;55.750;48.746;2024-01-16T02:43:39;98326.78;;;-7.43;82.82
78986;BME280;68384;55.750;48.746;2024-01-16T02:44:42;98324.25;;;-7.45;82.93
78986;BME280;68384;55.750;48.746;2024-01-16T02:45:44;98340.50;;;-7.43;83.25
78986;BME280;68384;55.750;48.746;2024-01-16T02:46:46;98325.09;;;-7.44;83.37
78986;BME280;68384;55.750;48.746;2024-01-16T02:47:48;98323.31;;;-7.41;83.85
78986;BME280;68384;55.750;48.746;2024-01-16T02:48:51;98319.00;;;-7.39;83.49
78986;BME280;68384;55.750;48.746;2024-01-16T02:49:53;98325.84;;;-7.38;83.18
78986;BME280;68384;55.750;48.746;2024-01-16T02:50:55;98317.28;;;-7.38;83.18
78986;BME280;68384;55.750;48.746;2024-01-16T02:51:57;98321.53;;;-7.34;83.18
78986;BME280;68384;55.750;48.746;2024-01-16T02:53:00;98303.63;;;-7.40;83.55
78986;BME280;68384;55.750;48.746;2024-01-16T02:54:02;98313.88;;;-7.39;83.60
78986;BME280;68384;55.750;48.746;2024-01-16T02:55:05;98313.03;;;-7.39;83.88
78986;BME280;68384;55.750;48.746;2024-01-16T02:56:08;98313.88;;;-7.39;83.59
78986;BME280;68384;55.750;48.746;2024-01-16T02:57:10;98313.00;;;-7.38;83.55
78986;BME280;68384;55.750;48.746;2024-01-16T02:58:12;98311.28;;;-7.37;82.97
78986;BME280;68384;55.750;48.746;2024-01-16T02:59:15;98321.56;;;-7.37;82.76
78986;BME280;68384;55.750;48.746;2024-01-16T03:00:17;98313.84;;;-7.36;83.59
78986;BME280;68384;55.750;48.746;2024-01-16T03:01:19;98313.00;;;-7.38;82.98
78986;BME280;68384;55.750;48.746;2024-01-16T03:02:22;98313.03;;;-7.39;83.20
78986;BME280;68384;55.750;48.746;2024-01-16T03:03:26;98312.97;;;-7.36;83.48
78986;BME280;68384;55.750;48.746;2024-01-16T03:04:28;98315.59;;;-7.39;83.54
78986;BME280;68384;55.750;48.746;2024-01-16T03:05:31;98313.84;;;-7.37;83.37
78986;BME280;68384;55.750;48.746;2024-01-16T03:06:33;98321.53;;;-7.34;82.97
78986;BME280;68384;55.750;48.746;2024-01-16T03:07:36;98313.84;;;-7.36;83.44
78986;BME280;68384;55.750;48.746;2024-01-16T03:08:38;98323.25;;;-7.35;83.68
78986;BME280;68384;55.750;48.746;2024-01-16T03:09:41;98318.97;;;-7.34;83.93
78986;BME280;68384;55.750;48.746;2024-01-16T03:10:43;98318.94;;;-7.33;83.73
78986;BME280;68384;55.750;48.746;2024-01-16T03:11:45;98325.78;;;-7.33;83.58
78986;BME280;68384;55.750;48.746;2024-01-16T03:12:47;98326.66;;;-7.34;83.31
78986;BME280;68384;55.750;48.746;2024-01-16T03:13:49;98330.09;;;-7.35;83.72
78986;BME280;68384;55.750;48.746;2024-01-16T03:14:54;98325.78;;;-7.32;83.69
78986;BME280;68384;55.750;48.746;2024-01-16T03:15:56;98315.50;;;-7.33;84.11
78986;BME280;68384;55.750;48.746;2024-01-16T03:16:58;98320.59;;;-7.30;84.04
78986;BME280;68384;55.750;48.746;2024-01-16T03:18:01;98314.56;;;-7.29;83.38
78986;BME280;68384;55.750;48.746;2024-01-16T03:19:03;98313.78;;;-7.33;83.94
78986;BME280;68384;55.750;48.746;2024-01-16T03:20:06;98316.38;;;-7.33;84.07
78986;BME280;68384;55.750;48.746;2024-01-16T03:21:10;98310.28;;;-7.30;84.37
78986;BME280;68384;55.750;48.746;2024-01-16T03:22:12;98311.25;;;-7.34;84.47
78986;BME280;68384;55.750;48.746;2024-01-16T03:23:15;98308.63;;;-7.31;84.59
78986;BME280;68384;55.750;48.746;2024-01-16T03:24:17;98305.22;;;-7.32;84.87
78986;BME280;68384;55.750;48.746;2024-01-16T03:25:19;98303.50;;;-7.31;84.19
78986;BME280;68384;55.750;48.746;2024-01-16T03:26:23;98312.91;;;-7.32;84.76
78986;BME280;68384;55.750;48.746;2024-01-16T03:27:25;98313.72;;;-7.30;85.13
78986;BME280;68384;55.750;48.746;2024-01-16T03:28:27;98306.06;;;-7.31;84.43
78986;BME280;68384;55.750;48.746;2024-01-16T03:29:29;98314.63;;;-7.32;84.48
78986;BME280;68384;55.750;48.746;2024-01-16T03:30:32;98316.38;;;-7.33;84.55
78986;BME280;68384;55.750;48.746;2024-01-16T03:31:34;98318.97;;;-7.34;84.63
78986;BME280;68384;55.750;48.746;2024-01-16T03:32:39;98319.81;;;-7.35;84.83
78986;BME280;68384;55.750;48.746;2024-01-16T03:33:41;98307.88;;;-7.38;84.84
78986;BME280;68384;55.750;48.746;2024-01-16T03:34:45;98315.59;;;-7.39;84.30
78986;BME280;68384;55.750;48.746;2024-01-16T03:35:47;98311.38;;;-7.43;85.95
78986;BME280;68384;55.750;48.746;2024-01-16T03:36:50;98319.09;;;-7.45;85.74
78986;BME280;68384;55.750;48.746;2024-01-16T03:37:52;98323.38;;;-7.45;85.30
78986;BME280;68384;55.750;48.746;2024-01-16T03:38:54;98328.53;;;-7.45;85.34
78986;BME280;68384;55.750;48.746;2024-01-16T03:39:56;98323.38;;;-7.45;85.20
78986;BME280;68384;55.750;48.746;2024-01-16T03:40:59;98321.69;;;-7.46;84.39
78986;BME280;68384;55.750;48.746;2024-01-16T03:42:01;98311.44;;;-7.48;84.37
78986;BME280;68384;55.750;48.746;2024-01-16T03:43:03;98319.22;;;-7.51;84.42
78986;BME280;68384;55.750;48.746;2024-01-16T03:44:07;98323.50;;;-7.51;84.63
78986;BME280;68384;55.750;48.746;2024-01-16T03:45:09;98314.06;;;-7.51;84.88
78986;BME280;68384;55.750;48.746;2024-01-16T03:46:14;98307.22;;;-7.50;84.80
78986;BME280;68384;55.750;48.746;2024-01-16T03:47:17;98326.00;;;-7.48;84.58
78986;BME280;68384;55.750;48.746;2024-01-16T03:48:19;98317.41;;;-7.47;84.93
78986;BME280;68384;55.750;48.746;2024-01-16T03:49:21;98310.56;;;-7.47;84.72
78986;BME280;68384;55.750;48.746;2024-01-16T03:50:24;98313.13;;;-7.47;84.35
78986;BME280;68384;55.750;48.746;2024-01-16T03:51:26;98315.69;;;-7.45;84.41
78986;BME280;68384;55.750;48.746;2024-01-16T03:52:28;98323.38;;;-7.45;84.23
78986;BME280;68384;55.750;48.746;2024-01-16T03:53:31;98315.69;;;-7.45;84.28
78986;BME280;68384;55.750;48.746;2024-01-16T03:54:33;98321.69;;;-7.46;84.14
78986;BME280;68384;55.750;48.746;2024-01-16T03:55:35;98314.81;;;-7.46;84.57
78986;BME280;68384;55.750;48.746;2024-01-16T03:56:37;98314.84;;;-7.47;84.70
78986;BME280;68384;55.750;48.746;2024-01-16T03:57:39;98307.97;;;-7.47;83.92
78986;BME280;68384;55.750;48.746;2024-01-16T03:58:42;98326.81;;;-7.46;84.07
78986;BME280;68384;55.750;48.746;2024-01-16T03:59:44;98318.22;;;-7.44;84.19
78986;BME280;68384;55.750;48.746;2024-01-16T04:00:46;98331.09;;;-7.44;84.06
78986;BME280;68384;55.750;48.746;2024-01-16T04:01:49;98323.34;;;-7.42;84.71
78986;BME280;68384;55.750;48.746;2024-01-16T04:02:51;98316.50;;;-7.43;84.01
78986;BME280;68384;55.750;48.746;2024-01-16T04:03:54;98325.09;;;-7.44;84.38
78986;BME280;68384;55.750;48.746;2024-01-16T04:04:56;98320.84;;;-7.48;83.82
78986;BME280;68384;55.750;48.746;2024-01-16T04:05:58;98323.41;;;-7.47;84.28
78986;BME280;68384;55.750;48.746;2024-01-16T04:07:01;98331.97;;;-7.46;84.43
78986;BME280;68384;55.750;48.746;2024-01-16T04:08:03;98339.66;;;-7.45;84.47
78986;BME280;68384;55.750;48.746;2024-01-16T04:09:05;98329.38;;;-7.45;83.56
78986;BME280;68384;55.750;48.746;2024-01-16T04:10:08;98333.72;;;-7.48;84.19
78986;BME280;68384;55.750;48.746;2024-01-16T04:11:13;98326.81;;;-7.46;83.62
78986;BME280;68384;55.750;48.746;2024-01-16T04:12:16;98330.25;;;-7.46;83.79
78986;BME280;68384;55.750;48.746;2024-01-16T04:13:18;98330.22;;;-7.43;84.09
78986;BME280;68384;55.750;48.746;2024-01-16T04:14:20;98332.75;;;-7.41;83.80
78986;BME280;68384;55.750;48.746;2024-01-16T04:15:23;98313.94;;;-7.43;83.55
78986;BME280;68384;55.750;48.746;2024-01-16T04:16:26;98323.34;;;-7.42;83.72
78986;BME280;68384;55.750;48.746;2024-01-16T04:17:28;98335.28;;;-7.38;83.75
78986;BME280;68384;55.750;48.746;2024-01-16T04:18:38;98331.00;;;-7.38;83.55
78986;BME280;68384;55.750;48.746;2024-01-16T04:19:41;98322.47;;;-7.41;83.28
78986;BME280;68384;55.750;48.746;2024-01-16T04:20:43;98320.75;;;-7.39;83.20
78986;BME280;68384;55.750;48.746;2024-01-16T04:21:45;98319.00;;;-7.39;83.07
78986;BME280;68384;55.750;48.746;2024-01-16T04:22:48;98331.00;;;-7.38;83.46
78986;BME280;68384;55.750;48.746;2024-01-16T04:23:50;98318.16;;;-7.39;83.74
78986;BME280;68384;55.750;48.746;2024-01-16T04:24:53;98329.31;;;-7.39;83.59
78986;BME280;68384;55.750;48.746;2024-01-16T04:25:55;98325.84;;;-7.38;83.50
78986;BME280;68384;55.750;48.746;2024-01-16T04:26:57;98326.75;;;-7.40;83.54
78986;BME280;68384;55.750;48.746;2024-01-16T04:28:00;98329.31;;;-7.40;83.64
78986;BME280;68384;55.750;48.746;2024-01-16T04:29:04;98331.91;;;-7.42;83.75
78986;BME280;68384;55.750;48.746;2024-01-16T04:30:07;98341.31;;;-7.41;83.88
78986;BME280;68384;55.750;48.746;2024-01-16T04:31:11;98337.03;;;-7.40;83.49
78986;BME280;68384;55.750;48.746;2024-01-16T04:32:14;98345.63;;;-7.41;83.68
78986;BME280;68384;55.750;48.746;2024-01-16T04:33:16;98333.63;;;-7.42;83.85
78986;BME280;68384;55.750;48.746;2024-01-16T04:34:18;98335.34;;;-7.41;83.54
78986;BME280;68384;55.750;48.746;2024-01-16T04:35:21;98338.78;;;-7.44;84.09
78986;BME280;68384;55.750;48.746;2024-01-16T04:36:24;98347.31;;;-7.40;83.71
78986;BME280;68384;55.750;48.746;2024-01-16T04:37:26;98341.31;;;-7.39;83.51
78986;BME280;68384;55.750;48.746;2024-01-16T04:38:28;98347.31;;;-7.40;83.48
78986;BME280;68384;55.750;48.746;2024-01-16T04:39:30;98349.03;;;-7.39;83.50
78986;BME280;68384;55.750;48.746;2024-01-16T04:40:33;98350.72;;;-7.38;84.06
78986;BME280;68384;55.750;48.746;2024-01-16T04:41:35;98345.53;;;-7.35;83.48
78986;BME280;68384;55.750;48.746;2024-01-16T04:42:38;98350.69;;;-7.35;83.61
78986;BME280;68384;55.750;48.746;2024-01-16T04:43:40;98362.63;;;-7.31;83.75
78986;BME280;68384;55.750;48.746;2024-01-16T04:44:42;98367.69;;;-7.28;83.11
78986;BME280;68384;55.750;48.746;2024-01-16T04:45:44;98362.56;;;-7.28;83.33
78986;BME280;68384;55.750;48.746;2024-01-16T04:46:47;98373.66;;;-7.24;83.20
78986;BME280;68384;55.750;48.746;2024-01-16T04:47:49;98361.63;;;-7.24;83.32
78986;BME280;68384;55.750;48.746;2024-01-16T04:48:52;98363.34;;;-7.23;82.93
78986;BME280;68384;55.750;48.746;2024-01-16T04:49:54;98359.06;;;-7.22;83.26
78986;BME280;68384;55.750;48.746;2024-01-16T04:50:56;98359.06;;;-7.22;82.79
78986;BME280;68384;55.750;48.746;2024-01-16T04:51:59;98353.00;;;-7.20;83.18
78986;BME280;68384;55.750;48.746;2024-01-16T04:53:02;98355.59;;;-7.20;83.20
78986;BME280;68384;55.750;48.746;2024-01-16T04:54:04;98355.59;;;-7.20;82.78
78986;BME280;68384;55.750;48.746;2024-01-16T04:55:06;98352.19;;;-7.22;83.24
78986;BME280;68384;55.750;48.746;2024-01-16T04:56:09;98354.72;;;-7.20;82.14
78986;BME280;68384;55.750;48.746;2024-01-16T04:57:11;98355.63;;;-7.23;83.25
78986;BME280;68384;55.750;48.746;2024-01-16T04:58:14;98353.03;;;-7.21;82.43
78986;BME280;68384;55.750;48.746;2024-01-16T04:59:16;98359.03;;;-7.21;83.32
78986;BME280;68384;55.750;48.746;2024-01-16T05:00:18;98353.88;;;-7.21;83.23
78986;BME280;68384;55.750;48.746;2024-01-16T05:01:20;98365.00;;;-7.19;83.30
78986;BME280;68384;55.750;48.746;2024-01-16T05:02:23;98359.84;;;-7.17;82.83
78986;BME280;68384;55.750;48.746;2024-01-16T05:03:25;98356.38;;;-7.15;82.62
78986;BME280;68384;55.750;48.746;2024-01-16T05:04:27;98359.78;;;-7.14;82.70
78986;BME280;68384;55.750;48.746;2024-01-16T05:05:29;98356.34;;;-7.13;82.58
78986;BME280;68384;55.750;48.746;2024-01-16T05:06:31;98351.97;;;-7.10;82.92
78986;BME280;68384;55.750;48.746;2024-01-16T05:07:34;98356.25;;;-7.09;82.22
78986;BME280;68384;55.750;48.746;2024-01-16T05:08:37;98351.97;;;-7.10;82.43
78986;BME280;68384;55.750;48.746;2024-01-16T05:09:39;98352.84;;;-7.09;81.81
78986;BME280;68384;55.750;48.746;2024-01-16T05:10:41;98347.66;;;-7.08;82.46
78986;BME280;68384;55.750;48.746;2024-01-16T05:11:46;98352.84;;;-7.11;83.06
78986;BME280;68384;55.750;48.746;2024-01-16T05:12:48;98349.50;;;-7.14;82.43
78986;BME280;68384;55.750;48.746;2024-01-16T05:13:50;98346.06;;;-7.13;82.80
78986;BME280;68384;55.750;48.746;2024-01-16T05:14:59;98346.97;;;-7.16;81.83
78986;BME280;68384;55.750;48.746;2024-01-16T05:16:01;98353.81;;;-7.15;82.91
78986;BME280;68384;55.750;48.746;2024-01-16T05:17:03;98352.94;;;-7.14;82.27
78986;BME280;68384;55.750;48.746;2024-01-16T05:18:05;98352.94;;;-7.14;82.37
78986;BME280;68384;55.750;48.746;2024-01-16T05:19:08;98355.50;;;-7.14;82.40
78986;BME280;68384;55.750;48.746;2024-01-16T05:20:10;98353.78;;;-7.13;82.71
78986;BME280;68384;55.750;48.746;2024-01-16T05:21:13;98353.81;;;-7.15;82.36
78986;BME280;68384;55.750;48.746;2024-01-16T05:22:15;98347.81;;;-7.15;82.64
78986;BME280;68384;55.750;48.746;2024-01-16T05:23:17;98351.22;;;-7.15;82.57
78986;BME280;68384;55.750;48.746;2024-01-16T05:24:20;98358.13;;;-7.17;82.57
78986;BME280;68384;55.750;48.746;2024-01-16T05:25:22;98352.94;;;-7.15;83.02
78986;BME280;68384;55.750;48.746;2024-01-16T05:26:24;98361.50;;;-7.15;82.21
78986;BME280;68384;55.750;48.746;2024-01-16T05:27:26;98368.28;;;-7.11;82.98